Time;durP1;ratioP1;P1;durP2;ratioP2;P2;SDS_P1;SDS_P2;PMS_P1;PMS_P2;Temp;Humidity;BMP_temperature;BMP_pressure;BME280_temperature;BME280_humidity;BME280_pressure;Samples;Min_cycle;Max_cycle;Signal;HPM_P1;HPM_P2
2021/09/19 00:02:08;;;;;;;4.70;3.55;;;13.10;99.90;;;;;;6086559;23;20033;-83
2021/09/19 00:04:33;;;;;;;3.90;3.00;;;13.20;99.90;;;;;;6086377;23;20014;-84
2021/09/19 00:06:59;;;;;;;4.15;3.63;;;13.10;99.90;;;;;;6062712;23;20014;-84
2021/09/19 00:09:24;;;;;;;4.57;3.95;;;13.20;99.90;;;;;;6110788;23;20010;-85
2021/09/19 00:11:50;;;;;;;3.75;3.28;;;13.20;99.90;;;;;;6062688;23;20010;-84
2021/09/19 00:14:17;;;;;;;3.25;2.88;;;13.20;99.90;;;;;;6086562;23;20022;-84
2021/09/19 00:16:43;;;;;;;4.45;3.55;;;13.20;99.90;;;;;;6086559;23;20006;-83
2021/09/19 00:19:10;;;;;;;4.88;3.60;;;13.20;99.90;;;;;;6086461;23;20010;-83
2021/09/19 00:21:35;;;;;;;3.35;2.90;;;13.20;99.90;;;;;;6062365;23;20038;-83
2021/09/19 00:24:01;;;;;;;4.32;3.83;;;13.20;99.90;;;;;;6062537;23;20011;-84
2021/09/19 00:26:27;;;;;;;4.70;3.58;;;13.20;99.90;;;;;;6086477;23;20017;-84
2021/09/19 00:28:53;;;;;;;4.53;3.78;;;13.20;99.90;;;;;;6086370;23;20010;-84
2021/09/19 00:31:18;;;;;;;4.18;3.78;;;13.20;99.90;;;;;;6086361;23;20034;-84
2021/09/19 00:33:44;;;;;;;5.22;4.60;;;13.30;99.90;;;;;;6062522;23;20033;-85
2021/09/19 00:36:09;;;;;;;4.72;4.32;;;13.20;99.90;;;;;;6086211;23;20006;-84
2021/09/19 00:38:35;;;;;;;5.60;4.10;;;13.30;99.90;;;;;;6062489;23;20034;-85
2021/09/19 00:41:00;;;;;;;6.05;4.35;;;13.20;99.90;;;;;;6086510;23;20368;-83
2021/09/19 00:43:26;;;;;;;4.05;3.63;;;13.20;99.90;;;;;;6062327;23;20006;-83
2021/09/19 00:45:52;;;;;;;4.45;3.88;;;13.20;99.90;;;;;;6057025;23;20029;-85
2021/09/19 00:48:17;;;;;;;6.85;4.53;;;13.20;99.90;;;;;;6081286;23;20003;-85
2021/09/19 00:50:43;;;;;;;5.35;4.38;;;13.20;99.90;;;;;;6057060;23;20011;-84
2021/09/19 00:53:11;;;;;;;5.18;4.63;;;13.20;99.90;;;;;;6057029;23;20059;-85
2021/09/19 00:55:38;;;;;;;4.78;4.30;;;13.20;99.90;;;;;;6081305;23;20011;-85
2021/09/19 00:58:10;;;;;;;4.30;3.42;;;13.20;99.90;;;;;;6057148;23;20015;-84
2021/09/19 01:00:35;;;;;;;4.70;4.18;;;13.20;99.90;;;;;;6081136;23;20015;-84
2021/09/19 01:03:01;;;;;;;4.90;4.40;;;13.10;99.90;;;;;;6081021;23;20039;-85
2021/09/19 01:05:27;;;;;;;6.00;4.20;;;13.10;99.90;;;;;;6080902;23;20067;-84
2021/09/19 01:07:53;;;;;;;5.68;4.60;;;13.10;99.90;;;;;;6081209;23;20062;-85
2021/09/19 01:10:22;;;;;;;5.82;4.78;;;13.10;99.90;;;;;;6080833;23;20010;-85
2021/09/19 01:12:51;;;;;;;6.35;4.97;;;13.20;99.90;;;;;;6081190;23;20003;-85
2021/09/19 01:15:17;;;;;;;5.90;4.93;;;13.20;99.90;;;;;;6056738;23;20011;-85
2021/09/19 01:17:43;;;;;;;5.15;4.68;;;13.20;99.90;;;;;;6081002;23;20011;-85
2021/09/19 01:20:13;;;;;;;5.35;4.35;;;13.10;99.90;;;;;;6081175;23;20017;-85
2021/09/19 01:22:42;;;;;;;5.18;4.65;;;13.10;99.90;;;;;;6080334;23;20086;-84
2021/09/19 01:25:12;;;;;;;4.25;3.85;;;13.10;99.90;;;;;;6080601;23;20074;-84
2021/09/19 01:27:38;;;;;;;4.97;4.47;;;13.10;99.90;;;;;;6057098;23;20011;-83
2021/09/19 01:30:09;;;;;;;5.88;5.30;;;13.10;99.90;;;;;;6081241;23;20015;-84
2021/09/19 01:32:37;;;;;;;5.40;4.88;;;13.10;99.90;;;;;;6056732;23;20018;-84
2021/09/19 01:35:03;;;;;;;5.90;5.38;;;13.10;99.90;;;;;;6080888;23;20045;-84
2021/09/19 01:37:29;;;;;;;4.53;4.13;;;13.10;99.90;;;;;;6080637;23;20034;-85
2021/09/19 01:39:54;;;;;;;5.57;5.03;;;13.10;99.90;;;;;;6080712;23;20015;-84
2021/09/19 01:42:20;;;;;;;7.05;5.25;;;13.10;99.90;;;;;;6080983;23;20342;-84
2021/09/19 01:44:45;;;;;;;5.95;4.97;;;13.00;99.90;;;;;;6080555;23;20022;-84
2021/09/19 01:47:11;;;;;;;5.28;4.72;;;13.10;99.90;;;;;;6033457;23;20313;-85
2021/09/19 01:49:47;;;;;;;5.80;5.22;;;13.10;99.90;;;;;;6057136;23;20015;-84
2021/09/19 01:52:13;;;;;;;5.35;4.43;;;13.10;99.90;;;;;;6057090;23;20007;-85
2021/09/19 01:54:39;;;;;;;6.68;4.90;;;13.10;99.90;;;;;;6081236;23;20006;-84
2021/09/19 01:57:05;;;;;;;5.05;4.55;;;13.20;99.90;;;;;;6057267;23;20387;-84
2021/09/19 01:59:31;;;;;;;4.70;3.70;;;13.10;99.90;;;;;;6057108;23;20011;-84
2021/09/19 02:01:57;;;;;;;4.18;3.65;;;13.10;99.90;;;;;;6080933;23;20014;-84
2021/09/19 02:04:22;;;;;;;6.55;5.95;;;13.20;99.90;;;;;;6057137;23;20022;-86
2021/09/19 02:06:48;;;;;;;5.72;5.20;;;13.20;99.90;;;;;;6080903;23;20014;-85
2021/09/19 02:09:13;;;;;;;8.52;5.25;;;13.10;99.90;;;;;;6056841;23;20011;-84
2021/09/19 02:11:39;;;;;;;4.35;3.05;;;13.20;99.90;;;;;;6082509;23;20003;-85
2021/09/19 02:14:04;;;;;;;4.78;4.35;;;13.20;99.90;;;;;;6056899;23;20023;-86
2021/09/19 02:16:30;;;;;;;4.97;4.15;;;13.20;99.90;;;;;;6081159;23;20511;-85
2021/09/19 02:18:58;;;;;;;5.35;4.45;;;13.20;99.90;;;;;;6057232;23;20007;-84
2021/09/19 02:21:25;;;;;;;6.63;5.60;;;13.20;99.90;;;;;;6057047;23;20011;-86
2021/09/19 02:23:51;;;;;;;4.18;3.85;;;13.30;99.90;;;;;;6080472;23;20011;-85
2021/09/19 02:26:16;;;;;;;5.97;5.38;;;13.20;99.90;;;;;;6081488;23;20018;-85
2021/09/19 02:28:42;;;;;;;5.07;4.57;;;13.20;99.90;;;;;;6082758;23;20007;-84
2021/09/19 02:31:07;;;;;;;6.50;5.90;;;13.20;99.90;;;;;;6058989;23;20003;-85
2021/09/19 02:33:34;;;;;;;4.97;4.53;;;13.20;99.90;;;;;;6058997;23;20014;-85
2021/09/19 02:36:00;;;;;;;5.20;4.68;;;13.20;99.90;;;;;;6058778;23;20007;-85
2021/09/19 02:38:26;;;;;;;6.63;5.13;;;13.10;99.90;;;;;;6082618;23;20031;-84
2021/09/19 02:40:52;;;;;;;7.50;5.88;;;13.10;99.90;;;;;;6058506;23;20350;-85
2021/09/19 02:43:20;;;;;;;7.55;6.65;;;13.10;99.90;;;;;;6059053;23;20007;-84
2021/09/19 02:45:46;;;;;;;6.25;5.65;;;13.10;99.90;;;;;;6097738;23;20018;-85
2021/09/19 02:48:12;;;;;;;9.63;5.70;;;13.10;99.90;;;;;;6086762;23;20002;-85
2021/09/19 02:50:37;;;;;;;8.95;6.60;;;13.10;99.90;;;;;;6086894;23;20018;-85
2021/09/19 02:53:03;;;;;;;7.55;6.32;;;13.10;99.90;;;;;;6063516;23;20074;-84
2021/09/19 02:55:29;;;;;;;6.35;4.60;;;13.10;99.90;;;;;;6111659;23;20002;-84
2021/09/19 02:57:54;;;;;;;6.20;5.50;;;13.10;99.90;;;;;;6087092;23;20006;-85
2021/09/19 03:00:22;;;;;;;5.60;4.88;;;13.10;99.90;;;;;;6086981;23;20011;-85
2021/09/19 03:02:49;;;;;;;8.95;7.15;;;13.20;99.90;;;;;;6087111;23;20014;-86
2021/09/19 03:05:15;;;;;;;7.55;6.28;;;13.10;99.90;;;;;;6112720;23;20015;-85
2021/09/19 03:07:41;;;;;;;7.22;6.05;;;13.10;99.90;;;;;;6087531;23;20507;-84
2021/09/19 03:10:08;;;;;;;7.15;6.38;;;13.20;99.90;;;;;;6086500;23;20014;-84
2021/09/19 03:12:34;;;;;;;8.77;7.18;;;13.20;99.90;;;;;;6063065;23;20010;-84
2021/09/19 03:15:00;;;;;;;6.45;5.75;;;13.20;99.90;;;;;;6110948;23;20007;-84
2021/09/19 03:17:26;;;;;;;5.97;5.38;;;13.20;99.90;;;;;;6111022;23;20013;-86
2021/09/19 03:19:52;;;;;;;6.20;5.60;;;13.20;99.90;;;;;;6086724;23;20010;-84
2021/09/19 03:22:18;;;;;;;7.03;4.90;;;13.20;99.90;;;;;;6086919;23;20081;-85
2021/09/19 03:24:43;;;;;;;6.10;5.32;;;13.20;99.90;;;;;;6086925;23;20019;-86
2021/09/19 03:27:09;;;;;;;6.00;5.40;;;13.20;99.90;;;;;;6063292;23;20007;-84
2021/09/19 03:29:35;;;;;;;5.68;5.13;;;13.20;99.90;;;;;;6086691;23;20109;-85
2021/09/19 03:32:00;;;;;;;6.72;5.13;;;13.20;99.90;;;;;;6111052;23;19998;-84
2021/09/19 03:34:26;;;;;;;6.30;4.80;;;13.20;99.90;;;;;;6062895;23;20007;-85
2021/09/19 03:36:51;;;;;;;6.55;4.93;;;13.20;99.90;;;;;;6110806;23;20017;-84
2021/09/19 03:39:17;;;;;;;6.95;5.55;;;13.20;99.90;;;;;;6062203;23;20010;-83
2021/09/19 03:41:43;;;;;;;6.55;5.00;;;13.10;99.90;;;;;;6086764;23;20041;-83
2021/09/19 03:44:10;;;;;;;6.43;5.45;;;13.10;99.90;;;;;;6086618;23;20017;-84
2021/09/19 03:46:37;;;;;;;7.45;6.28;;;13.10;99.90;;;;;;6060742;23;20019;-84
2021/09/19 03:49:03;;;;;;;5.95;5.35;;;13.00;99.90;;;;;;6081722;23;20010;-84
2021/09/19 03:51:28;;;;;;;6.82;6.13;;;13.00;99.90;;;;;;6034389;23;20015;-84
2021/09/19 03:53:54;;;;;;;6.50;5.65;;;12.90;99.90;;;;;;6034324;23;20105;-84
2021/09/19 03:56:20;;;;;;;6.80;6.03;;;12.90;99.90;;;;;;6034136;23;20416;-84
2021/09/19 03:58:45;;;;;;;7.55;6.30;;;12.90;99.90;;;;;;6057711;23;20416;-84
2021/09/19 04:01:11;;;;;;;5.90;4.88;;;12.90;99.90;;;;;;6057888;23;20011;-84
2021/09/19 04:03:37;;;;;;;7.93;6.30;;;12.80;99.90;;;;;;6034240;23;20037;-84
2021/09/19 04:06:03;;;;;;;6.63;5.90;;;12.80;99.90;;;;;;6034082;23;20019;-84
2021/09/19 04:08:28;;;;;;;8.35;6.43;;;12.80;99.90;;;;;;6033999;23;20003;-85
2021/09/19 04:10:54;;;;;;;6.53;5.75;;;12.70;99.90;;;;;;6033845;23;20066;-84
2021/09/19 04:13:20;;;;;;;10.93;5.88;;;12.70;99.90;;;;;;6033788;23;20062;-84
2021/09/19 04:15:45;;;;;;;7.53;6.70;;;12.60;99.90;;;;;;6034199;23;20023;-84
2021/09/19 04:18:13;;;;;;;7.55;5.38;;;12.60;99.90;;;;;;6034109;23;20038;-84
2021/09/19 04:20:38;;;;;;;6.32;5.50;;;12.60;99.90;;;;;;6033805;23;20007;-85
2021/09/19 04:23:04;;;;;;;7.50;6.68;;;12.50;99.90;;;;;;6057631;23;20018;-85
2021/09/19 04:25:30;;;;;;;6.88;5.75;;;12.50;99.90;;;;;;6057476;23;20011;-84
2021/09/19 04:27:55;;;;;;;7.63;6.28;;;12.50;99.90;;;;;;6034179;23;20007;-85
2021/09/19 04:30:21;;;;;;;5.65;5.05;;;12.50;99.90;;;;;;6033902;23;20030;-84
2021/09/19 04:32:47;;;;;;;6.07;5.13;;;12.50;99.90;;;;;;6057672;23;20007;-85
2021/09/19 04:35:13;;;;;;;7.13;5.68;;;12.50;99.90;;;;;;6033757;23;20011;-84
2021/09/19 04:37:38;;;;;;;7.40;6.03;;;12.40;99.90;;;;;;6033596;23;20002;-83
2021/09/19 04:40:06;;;;;;;7.22;5.53;;;12.40;99.90;;;;;;6057569;23;20042;-84
2021/09/19 04:42:31;;;;;;;5.55;4.90;;;12.40;99.90;;;;;;6033815;23;20039;-84
2021/09/19 04:44:57;;;;;;;6.95;5.40;;;12.40;99.90;;;;;;6039304;23;20325;-85
2021/09/19 04:47:23;;;;;;;7.72;5.60;;;12.40;99.90;;;;;;6086254;23;20013;-85
2021/09/19 04:49:48;;;;;;;6.50;5.20;;;12.30;99.90;;;;;;6086037;23;20073;-84
2021/09/19 04:52:14;;;;;;;6.30;4.85;;;12.40;99.90;;;;;;6086026;23;20014;-83
2021/09/19 04:54:39;;;;;;;5.93;4.63;;;12.30;99.90;;;;;;6086055;23;20029;-84
2021/09/19 04:57:05;;;;;;;5.53;4.90;;;12.30;99.90;;;;;;6111429;23;20015;-85
2021/09/19 04:59:31;;;;;;;8.25;5.30;;;12.20;99.90;;;;;;6110135;23;20018;-84
2021/09/19 05:01:57;;;;;;;5.57;5.07;;;12.20;99.90;;;;;;6086222;23;20033;-84
2021/09/19 05:04:22;;;;;;;7.10;5.15;;;12.20;99.90;;;;;;6086075;23;20078;-84
2021/09/19 05:06:48;;;;;;;6.38;4.90;;;12.20;99.90;;;;;;6086176;23;20030;-84
2021/09/19 05:09:14;;;;;;;5.28;4.70;;;12.20;99.90;;;;;;6086043;23;20014;-85
2021/09/19 05:11:39;;;;;;;6.40;5.05;;;12.20;99.90;;;;;;6085960;23;20447;-84
2021/09/19 05:14:05;;;;;;;5.85;4.53;;;12.20;99.90;;;;;;6085979;23;20009;-84
2021/09/19 05:16:31;;;;;;;4.80;4.07;;;12.20;99.90;;;;;;6085767;23;20010;-84
2021/09/19 05:18:57;;;;;;;6.57;4.53;;;12.20;99.90;;;;;;6086293;23;20006;-85
2021/09/19 05:21:23;;;;;;;5.60;4.72;;;12.20;99.90;;;;;;6085974;23;20418;-84
2021/09/19 05:23:48;;;;;;;4.57;4.07;;;12.10;99.90;;;;;;6086061;23;20097;-84
2021/09/19 05:26:14;;;;;;;6.18;4.03;;;12.10;99.90;;;;;;6109615;23;20022;-85
2021/09/19 05:28:40;;;;;;;5.00;4.15;;;12.20;99.90;;;;;;6085392;23;20006;-85
2021/09/19 05:31:05;;;;;;;6.13;5.47;;;12.10;99.90;;;;;;6109392;23;20021;-84
2021/09/19 05:33:31;;;;;;;6.07;5.15;;;12.10;99.90;;;;;;6085315;23;20086;-84
2021/09/19 05:35:57;;;;;;;6.65;5.55;;;12.10;99.90;;;;;;6085214;23;20026;-84
2021/09/19 05:38:22;;;;;;;6.03;5.25;;;12.10;99.90;;;;;;6085022;23;20431;-85
2021/09/19 05:40:48;;;;;;;7.20;4.68;;;12.10;99.90;;;;;;6084866;23;20066;-84
2021/09/19 05:43:14;;;;;;;6.32;4.68;;;12.10;99.90;;;;;;6109003;23;20455;-84
2021/09/19 05:45:40;;;;;;;6.18;5.00;;;12.10;99.90;;;;;;6082523;23;20069;-84
2021/09/19 05:48:06;;;;;;;7.35;5.40;;;12.10;99.90;;;;;;6084414;23;20010;-84
2021/09/19 05:50:32;;;;;;;6.07;4.93;;;12.10;99.90;;;;;;6084638;23;20018;-84
2021/09/19 05:52:58;;;;;;;8.52;5.15;;;12.10;99.90;;;;;;6061060;23;20142;-85
2021/09/19 05:55:23;;;;;;;6.50;5.15;;;12.10;99.90;;;;;;6060766;23;20014;-84
2021/09/19 05:57:49;;;;;;;6.80;5.78;;;12.10;99.90;;;;;;6108528;23;20014;-84
2021/09/19 06:00:15;;;;;;;7.82;5.15;;;12.10;99.90;;;;;;6084112;23;20065;-84
2021/09/19 06:02:41;;;;;;;6.32;5.05;;;12.10;99.90;;;;;;6110641;23;20003;-84
2021/09/19 06:05:07;;;;;;;7.68;5.20;;;12.20;99.90;;;;;;6086771;23;20014;-85
2021/09/19 06:07:33;;;;;;;8.07;5.07;;;12.20;99.90;;;;;;6086743;23;20007;-85
2021/09/19 06:09:59;;;;;;;8.05;4.80;;;12.20;99.90;;;;;;6086695;23;20022;-84
2021/09/19 06:12:25;;;;;;;8.65;6.00;;;12.20;99.90;;;;;;6086416;23;20060;-84
2021/09/19 06:14:51;;;;;;;7.72;4.57;;;12.20;99.90;;;;;;6110527;23;20010;-84
2021/09/19 06:17:18;;;;;;;8.18;5.80;;;12.30;99.90;;;;;;6086099;23;20006;-84
2021/09/19 06:19:44;;;;;;;6.57;5.50;;;12.30;99.90;;;;;;6110917;23;20017;-84
2021/09/19 06:22:10;;;;;;;6.40;4.97;;;12.30;99.90;;;;;;6110166;23;20428;-83
2021/09/19 06:24:36;;;;;;;7.68;5.75;;;12.50;99.90;;;;;;6086571;23;20045;-83
2021/09/19 06:27:02;;;;;;;5.97;4.97;;;12.50;99.90;;;;;;6062154;23;20085;-85
2021/09/19 06:29:28;;;;;;;6.70;5.90;;;12.50;99.90;;;;;;6110279;23;20034;-84
2021/09/19 06:31:55;;;;;;;6.28;4.93;;;12.60;99.90;;;;;;6111568;23;20089;-84
2021/09/19 06:34:20;;;;;;;6.53;5.43;;;12.70;99.90;;;;;;6086279;23;20392;-83
2021/09/19 06:36:46;;;;;;;7.22;5.57;;;12.70;99.90;;;;;;6110789;23;20030;-85
2021/09/19 06:39:12;;;;;;;6.82;5.78;;;12.80;99.90;;;;;;6086350;23;20006;-83
2021/09/19 06:41:38;;;;;;;7.13;5.65;;;12.80;99.90;;;;;;6086726;23;20011;-84
2021/09/19 06:44:03;;;;;;;7.07;5.43;;;12.80;99.90;;;;;;6109999;23;20022;-84
2021/09/19 06:46:33;;;;;;;6.20;5.30;;;12.90;99.90;;;;;;6085841;23;20388;-84
2021/09/19 06:49:02;;;;;;;6.78;4.93;;;12.90;99.90;;;;;;6085811;23;20006;-84
2021/09/19 06:51:28;;;;;;;5.60;5.00;;;13.00;99.90;;;;;;6062214;23;20016;-83
2021/09/19 06:53:54;;;;;;;4.60;4.03;;;13.10;99.90;;;;;;6085911;23;20030;-81
2021/09/19 06:56:21;;;;;;;5.07;4.00;;;13.20;99.90;;;;;;6061677;23;20010;-81
2021/09/19 06:58:48;;;;;;;5.90;4.75;;;13.20;99.90;;;;;;6061572;23;20009;-81
2021/09/19 07:01:15;;;;;;;6.25;4.85;;;13.30;99.90;;;;;;6062251;23;20394;-82
2021/09/19 07:03:41;;;;;;;6.50;4.88;;;13.30;99.90;;;;;;6085706;23;20085;-81
2021/09/19 07:06:07;;;;;;;5.80;4.53;;;13.40;99.90;;;;;;6061893;23;20042;-81
2021/09/19 07:08:33;;;;;;;4.68;3.88;;;13.40;99.90;;;;;;6085815;23;20022;-81
2021/09/19 07:10:58;;;;;;;5.97;4.03;;;13.40;99.90;;;;;;6062185;23;20010;-81
2021/09/19 07:13:24;;;;;;;5.18;4.15;;;13.50;99.90;;;;;;6061606;23;20014;-81
2021/09/19 07:15:53;;;;;;;4.68;3.30;;;13.60;99.90;;;;;;6061739;23;20018;-81
2021/09/19 07:18:20;;;;;;;6.05;4.65;;;13.70;99.90;;;;;;6061512;23;20254;-81
2021/09/19 07:20:46;;;;;;;6.05;4.70;;;13.70;99.90;;;;;;6062050;23;20431;-81
2021/09/19 07:23:11;;;;;;;5.15;4.25;;;13.80;99.90;;;;;;6061740;23;20010;-81
2021/09/19 07:25:37;;;;;;;4.78;4.03;;;13.90;99.90;;;;;;6061681;23;20018;-81
2021/09/19 07:28:04;;;;;;;4.85;3.72;;;13.90;99.90;;;;;;6085814;23;20006;-81
2021/09/19 07:30:31;;;;;;;5.78;3.65;;;14.00;99.90;;;;;;6061626;23;20321;-81
2021/09/19 07:32:57;;;;;;;4.90;4.18;;;14.10;99.90;;;;;;6109866;23;20006;-82
2021/09/19 07:35:22;;;;;;;4.85;4.07;;;14.20;99.90;;;;;;6061653;23;20010;-81
2021/09/19 07:37:49;;;;;;;4.93;3.83;;;14.30;99.90;;;;;;6061720;23;20041;-81
2021/09/19 07:40:15;;;;;;;5.30;3.25;;;14.50;99.90;;;;;;6085490;23;20374;-82
2021/09/19 07:42:41;;;;;;;4.10;3.17;;;14.60;99.90;;;;;;6061736;23;20436;-81
2021/09/19 07:45:07;;;;;;;4.35;2.65;;;14.70;99.90;;;;;;6056248;23;20019;-81
2021/09/19 07:47:33;;;;;;;4.47;3.33;;;14.90;99.90;;;;;;6104652;23;20007;-81
2021/09/19 07:49:59;;;;;;;3.42;2.53;;;15.00;99.90;;;;;;6104692;23;20011;-82
2021/09/19 07:52:26;;;;;;;3.00;2.70;;;15.10;99.90;;;;;;6080827;23;20035;-81
2021/09/19 07:54:54;;;;;;;3.45;1.92;;;15.10;99.90;;;;;;6080762;23;20010;-81
2021/09/19 07:57:23;;;;;;;3.53;2.80;;;15.30;99.90;;;;;;6080775;23;20077;-81
2021/09/19 07:59:51;;;;;;;4.20;2.50;;;15.20;99.90;;;;;;6080314;23;20011;-81
2021/09/19 08:02:16;;;;;;;3.33;2.47;;;15.30;99.90;;;;;;6080534;23;20035;-81
2021/09/19 08:04:42;;;;;;;2.88;2.47;;;15.30;99.90;;;;;;6080408;23;20019;-81
2021/09/19 08:07:07;;;;;;;4.22;2.72;;;15.40;99.90;;;;;;6080373;23;20381;-81
2021/09/19 08:09:33;;;;;;;2.67;2.13;;;15.40;99.90;;;;;;6080414;23;20090;-81
2021/09/19 08:11:59;;;;;;;3.90;2.80;;;15.60;99.90;;;;;;6080429;23;20007;-81
2021/09/19 08:14:24;;;;;;;4.65;2.20;;;15.60;99.90;;;;;;6080351;23;20444;-81
2021/09/19 08:16:50;;;;;;;4.88;2.47;;;15.80;99.90;;;;;;6080161;23;20221;-82
2021/09/19 08:19:16;;;;;;;3.08;2.15;;;15.90;99.90;;;;;;6104229;23;20087;-82
2021/09/19 08:21:42;;;;;;;2.20;1.67;;;16.10;99.90;;;;;;6080992;23;20142;-81
2021/09/19 08:24:10;;;;;;;2.88;1.95;;;16.40;99.90;;;;;;6079974;23;20146;-81
2021/09/19 08:26:40;;;;;;;2.42;1.65;;;16.60;99.90;;;;;;6080365;23;20019;-81
2021/09/19 08:29:06;;;;;;;3.50;2.17;;;16.80;99.90;;;;;;6056268;23;20007;-81
2021/09/19 08:31:32;;;;;;;2.97;2.15;;;17.00;99.90;;;;;;6080221;23;20246;-81
2021/09/19 08:33:57;;;;;;;3.30;2.53;;;16.90;99.90;;;;;;6080608;23;20011;-82
2021/09/19 08:36:24;;;;;;;2.50;1.83;;;17.10;99.90;;;;;;6082164;23;20007;-82
2021/09/19 08:38:50;;;;;;;1.95;1.10;;;17.40;99.90;;;;;;6056320;23;20007;-82
2021/09/19 08:41:17;;;;;;;2.67;1.58;;;17.60;99.90;;;;;;6080385;23;20053;-82
2021/09/19 08:43:44;;;;;;;2.83;1.45;;;17.60;99.90;;;;;;6055986;23;20344;-81
2021/09/19 08:46:17;;;;;;;3.10;1.08;;;17.70;99.90;;;;;;6084463;23;20097;-82
2021/09/19 08:48:44;;;;;;;1.63;0.90;;;17.90;99.90;;;;;;6084844;23;20030;-82
2021/09/19 08:51:10;;;;;;;1.90;0.98;;;18.00;99.90;;;;;;6085004;23;20010;-82
2021/09/19 08:53:35;;;;;;;1.92;1.17;;;17.90;99.90;;;;;;6061043;23;20057;-82
2021/09/19 08:56:03;;;;;;;2.63;0.90;;;18.10;99.90;;;;;;6108850;23;20080;-81
2021/09/19 08:58:28;;;;;;;2.08;0.85;;;17.90;99.90;;;;;;6084847;23;20026;-81
2021/09/19 09:00:58;;;;;;;1.80;0.90;;;18.00;99.90;;;;;;6083555;23;20102;-89
2021/09/19 09:03:23;;;;;;;2.10;1.00;;;17.80;99.90;;;;;;6060547;23;20014;-81
2021/09/19 09:05:56;;;;;;;1.83;0.75;;;18.00;99.90;;;;;;6084535;23;20014;-82
2021/09/19 09:08:23;;;;;;;1.63;0.70;;;18.10;99.90;;;;;;6060859;23;20089;-82
2021/09/19 09:10:51;;;;;;;2.10;0.82;;;18.00;99.90;;;;;;6060687;23;20109;-82
2021/09/19 09:13:19;;;;;;;1.77;0.75;;;18.00;99.90;;;;;;6084642;23;20127;-82
2021/09/19 09:16:00;;;;;;;1.27;0.60;;;18.40;99.90;;;;;;6111952;23;20006;-82
2021/09/19 09:18:37;;;;;;;1.20;0.50;;;18.40;99.90;;;;;;6059652;23;20058;-83
2021/09/19 09:21:05;;;;;;;2.38;0.80;;;18.50;99.90;;;;;;6060722;23;20431;-82
2021/09/19 09:23:39;;;;;;;1.35;0.50;;;18.30;99.90;;;;;;6084905;23;20006;-82
2021/09/19 09:26:16;;;;;;;1.00;0.50;;;18.50;99.90;;;;;;6060259;23;20099;-82
2021/09/19 09:28:52;;;;;;;1.00;0.40;;;19.00;99.90;;;;;;6084329;23;20014;-83
2021/09/19 09:31:48;;;;;;;1.40;0.60;;;19.20;99.90;;;;;;6084437;23;20085;-83
2021/09/19 09:34:19;;;;;;;1.00;0.50;;;19.30;99.90;;;;;;6084521;23;20014;-82
2021/09/19 09:36:57;;;;;;;0.90;0.50;;;19.60;99.90;;;;;;6083793;23;20383;-82
2021/09/19 09:39:32;;;;;;;1.08;0.45;;;19.50;99.90;;;;;;6060513;23;20013;-82
2021/09/19 09:42:18;;;;;;;1.00;0.40;;;19.90;99.90;;;;;;6060538;23;20062;-81
2021/09/19 09:44:52;;;;;;;0.93;0.50;;;19.70;99.90;;;;;;6060058;23;20014;-81
2021/09/19 09:47:19;;;;;;;1.25;0.50;;;19.50;99.90;;;;;;6083910;23;20006;-82
2021/09/19 09:49:53;;;;;;;1.27;0.50;;;19.50;99.90;;;;;;6084335;23;20021;-82
2021/09/19 09:52:31;;;;;;;2.08;0.50;;;19.50;99.90;;;;;;6060416;23;20090;-83
2021/09/19 09:55:01;;;;;;;0.85;0.40;;;19.80;99.90;;;;;;6059811;23;20010;-81
2021/09/19 09:57:36;;;;;;;0.88;0.40;;;19.60;99.90;;;;;;6082845;23;20086;-82
2021/09/19 10:00:12;;;;;;;2.15;0.40;;;19.70;99.90;;;;;;6059050;23;20037;-81
2021/09/19 10:02:43;;;;;;;1.25;0.45;;;20.20;99.90;;;;;;6060157;23;20062;-82
2021/09/19 10:05:12;;;;;;;1.58;0.60;;;19.90;99.90;;;;;;6060040;23;20026;-83
2021/09/19 10:07:39;;;;;;;1.30;0.50;;;19.70;99.90;;;;;;6083858;23;20002;-82
2021/09/19 10:10:11;;;;;;;1.63;0.50;;;19.90;99.90;;;;;;6059880;23;20014;-83
2021/09/19 10:12:37;;;;;;;0.88;0.45;;;20.20;99.90;;;;;;6083871;23;20026;-82
2021/09/19 10:15:05;;;;;;;1.10;0.40;;;20.20;99.90;;;;;;6059746;23;20038;-83
2021/09/19 10:17:31;;;;;;;1.10;0.50;;;20.20;99.90;;;;;;6059685;23;20011;-82
2021/09/19 10:19:58;;;;;;;1.00;0.40;;;20.00;99.90;;;;;;6084604;23;20005;-83
2021/09/19 10:22:31;;;;;;;0.90;0.40;;;19.80;99.90;;;;;;6054072;23;20078;-83
2021/09/19 10:25:01;;;;;;;1.00;0.40;;;20.00;99.90;;;;;;6059078;23;20022;-82
2021/09/19 10:27:33;;;;;;;1.02;0.40;;;19.90;99.90;;;;;;6108199;23;20009;-82
2021/09/19 10:30:02;;;;;;;3.00;0.50;;;19.90;99.90;;;;;;6060953;23;20070;-83
2021/09/19 10:32:47;;;;;;;2.67;0.60;;;19.90;99.90;;;;;;6060419;23;20006;-84
2021/09/19 10:35:17;;;;;;;0.88;0.40;;;20.30;99.90;;;;;;6060988;23;20132;-84
2021/09/19 10:38:00;;;;;;;0.88;0.30;;;20.40;99.90;;;;;;6084456;23;20007;-85
2021/09/19 10:40:32;;;;;;;0.90;0.40;;;21.00;99.90;;;;;;6084165;23;20045;-84
2021/09/19 10:42:58;;;;;;;0.90;0.40;;;21.10;99.90;;;;;;6084708;23;20006;-84
2021/09/19 10:45:39;;;;;;;0.82;0.40;;;20.80;99.90;;;;;;6079426;23;20026;-84
2021/09/19 10:48:29;;;;;;;0.95;0.35;;;20.50;99.90;;;;;;6080137;23;20097;-84
2021/09/19 10:51:00;;;;;;;;;;;20.70;99.90;;;;;;6078162;23;20014;-84
2021/09/19 10:53:26;;;;;;;1.00;0.40;;;20.60;99.90;;;;;;6081634;23;19913;-84
2021/09/19 10:56:03;;;;;;;1.02;0.40;;;20.80;99.90;;;;;;6081932;23;20007;-84
2021/09/19 10:58:36;;;;;;;1.30;0.40;;;20.70;99.90;;;;;;6082183;23;20055;-84
2021/09/19 11:01:26;;;;;;;0.68;0.30;;;21.30;99.90;;;;;;6081976;23;20007;-84
2021/09/19 11:04:00;;;;;;;0.80;0.30;;;21.50;99.90;;;;;;6052454;23;20027;-82
2021/09/19 11:06:31;;;;;;;0.90;0.40;;;21.20;99.90;;;;;;6078507;23;20042;-84
2021/09/19 11:09:01;;;;;;;1.10;0.40;;;20.80;99.90;;;;;;6080192;23;20743;-84
2021/09/19 11:11:28;;;;;;;1.75;0.38;;;20.20;99.90;;;;;;6056863;23;20006;-84
2021/09/19 11:13:58;;;;;;;1.15;0.40;;;20.10;99.90;;;;;;6056204;23;20305;-83
2021/09/19 11:16:36;;;;;;;0.82;0.40;;;20.40;99.90;;;;;;6057491;23;20031;-85
2021/09/19 11:19:07;;;;;;;0.82;0.40;;;20.70;99.90;;;;;;6081670;23;20081;-85
2021/09/19 11:21:38;;;;;;;0.90;0.40;;;20.90;99.90;;;;;;6066794;23;20436;-84
2021/09/19 11:24:13;;;;;;;0.90;0.40;;;21.10;99.90;;;;;;6032545;23;20035;-82
2021/09/19 11:26:46;;;;;;;1.05;0.40;;;21.20;99.90;;;;;;6078939;23;20057;-83
2021/09/19 11:30:07;;;;;;;1.02;0.47;;;20.70;99.90;;;;;;6082259;23;20010;-91
2021/09/19 11:32:40;;;;;;;1.20;0.50;;;20.50;99.90;;;;;;6051196;23;20011;-92
2021/09/19 11:35:12;;;;;;;1.38;0.60;;;20.40;99.90;;;;;;6057016;23;20014;-92
2021/09/19 11:37:40;;;;;;;1.15;0.50;;;20.40;99.90;;;;;;6082283;23;20022;-91
2021/09/19 11:40:40;;;;;;;1.75;0.60;;;20.30;99.90;;;;;;6057672;23;20030;-90
2021/09/19 11:43:48;;;;;;;1.15;0.60;;;20.50;99.90;;;;;;6056391;23;20098;-91
2021/09/19 11:52:21;;;;;;;2.00;0.60;;;21.70;99.90;;;;;;6144544;23;20104;-92
2021/09/19 11:55:22;;;;;;;0.93;0.43;;;22.10;99.90;;;;;;6120456;23;20014;-94
2021/09/19 12:01:09;;;;;;;1.10;0.50;;;21.60;99.90;;;;;;6138324;23;20085;-90
2021/09/19 12:07:38;;;;;;;1.67;0.50;;;21.40;99.90;;;;;;6171544;23;20056;-91
2021/09/19 12:10:09;;;;;;;1.55;0.60;;;21.10;99.90;;;;;;6165826;23;20013;-90
2021/09/19 12:12:42;;;;;;;1.42;0.73;;;21.40;99.90;;;;;;6144748;23;20024;-91
2021/09/19 12:15:11;;;;;;;1.20;0.60;;;21.60;99.90;;;;;;6166902;23;20009;-91
2021/09/19 12:17:42;;;;;;;1.67;0.67;;;21.10;99.90;;;;;;6173091;23;20009;-90
2021/09/19 12:20:28;;;;;;;1.63;0.50;;;21.30;99.90;;;;;;6175283;23;20023;-91
2021/09/19 12:23:17;;;;;;;1.17;0.60;;;21.10;99.90;;;;;;6144871;23;20033;-91
2021/09/19 12:26:34;;;;;;;1.23;0.60;;;20.70;99.90;;;;;;6147056;23;20021;-90
2021/09/19 12:32:49;;;;;;;1.95;0.75;;;20.40;99.90;;;;;;6123870;23;20017;-90
2021/09/19 12:35:45;;;;;;;1.55;0.70;;;20.30;99.90;;;;;;6089460;23;20009;-91
2021/09/19 12:38:19;;;;;;;1.67;1.00;;;20.30;99.90;;;;;;6087320;23;20006;-88
2021/09/19 12:41:09;;;;;;;2.17;1.00;;;20.20;99.90;;;;;;6088460;23;20014;-90
2021/09/19 12:44:20;;;;;;;1.70;0.80;;;20.10;99.90;;;;;;6111579;23;20412;-90
2021/09/19 12:47:06;;;;;;;1.95;0.73;;;20.30;99.90;;;;;;6110537;23;20017;-91
2021/09/19 12:49:42;;;;;;;1.50;0.70;;;20.80;99.90;;;;;;6111294;23;20010;-89
2021/09/19 12:52:55;;;;;;;2.70;0.80;;;20.60;99.90;;;;;;6110812;23;20054;-92
2021/09/19 12:56:06;;;;;;;1.48;0.70;;;20.80;99.90;;;;;;6110390;23;20010;-92
2021/09/19 13:01:55;;;;;;;2.88;0.88;;;21.00;99.90;;;;;;6136432;23;20083;-91
2021/09/19 13:04:21;;;;;;;1.63;0.70;;;21.40;99.90;;;;;;6131631;23;20043;-92
2021/09/19 13:06:57;;;;;;;1.73;0.60;;;21.20;99.90;;;;;;6173178;23;20036;-92
2021/09/19 13:09:45;;;;;;;1.60;0.55;;;21.20;99.90;;;;;;6146665;23;20020;-91
2021/09/19 13:12:52;;;;;;;1.58;0.60;;;21.10;99.90;;;;;;6171078;23;20033;-92
2021/09/19 13:15:28;;;;;;;2.13;0.70;;;21.10;99.90;;;;;;6146110;23;20008;-91
2021/09/19 13:18:43;;;;;;;1.92;0.60;;;21.20;99.90;;;;;;6171461;23;20082;-92
2021/09/19 13:21:26;;;;;;;1.55;0.60;;;21.30;99.90;;;;;;6173018;23;20064;-92